sensor_id;sensor_type;location;lat;lon;timestamp;P1;durP1;ratioP1;P2;durP2;ratioP2
13943;SDS011;7044;53.286;8.534;2023-02-05T00:00:37;5.13;;;3.60;;
13943;SDS011;7044;53.286;8.534;2023-02-05T00:03:04;5.90;;;4.20;;
13943;SDS011;7044;53.286;8.534;2023-02-05T00:05:32;6.80;;;3.53;;
13943;SDS011;7044;53.286;8.534;2023-02-05T00:07:59;5.63;;;3.67;;
13943;SDS011;7044;53.286;8.534;2023-02-05T00:10:26;4.50;;;3.50;;
13943;SDS011;7044;53.286;8.534;2023-02-05T00:12:53;5.77;;;3.97;;
13943;SDS011;7044;53.286;8.534;2023-02-05T00:15:20;6.90;;;4.20;;
13943;SDS011;7044;53.286;8.534;2023-02-05T00:17:47;5.43;;;3.60;;
13943;SDS011;7044;53.286;8.534;2023-02-05T00:20:13;4.40;;;3.80;;
13943;SDS011;7044;53.286;8.534;2023-02-05T00:22:41;5.63;;;3.90;;
13943;SDS011;7044;53.286;8.534;2023-02-05T00:25:08;6.70;;;3.83;;
13943;SDS011;7044;53.286;8.534;2023-02-05T00:27:35;8.73;;;3.73;;
13943;SDS011;7044;53.286;8.534;2023-02-05T00:30:02;6.67;;;4.13;;
13943;SDS011;7044;53.286;8.534;2023-02-05T00:32:29;6.00;;;4.30;;
13943;SDS011;7044;53.286;8.534;2023-02-05T00:34:56;5.67;;;3.47;;
13943;SDS011;7044;53.286;8.534;2023-02-05T00:37:23;4.93;;;3.73;;
13943;SDS011;7044;53.286;8.534;2023-02-05T00:39:51;4.13;;;3.23;;
13943;SDS011;7044;53.286;8.534;2023-02-05T00:42:18;5.17;;;3.67;;
13943;SDS011;7044;53.286;8.534;2023-02-05T00:44:45;4.03;;;3.37;;
13943;SDS011;7044;53.286;8.534;2023-02-05T00:47:12;4.00;;;3.30;;
13943;SDS011;7044;53.286;8.534;2023-02-05T00:49:38;4.40;;;3.40;;
13943;SDS011;7044;53.286;8.534;2023-02-05T00:52:05;4.50;;;3.30;;
13943;SDS011;7044;53.286;8.534;2023-02-05T00:54:32;4.77;;;3.23;;
13943;SDS011;7044;53.286;8.534;2023-02-05T00:57:00;8.27;;;3.60;;
13943;SDS011;7044;53.286;8.534;2023-02-05T00:59:27;4.80;;;3.17;;
13943;SDS011;7044;53.286;8.534;2023-02-05T01:01:54;5.83;;;3.20;;
13943;SDS011;7044;53.286;8.534;2023-02-05T01:04:20;6.00;;;3.37;;
13943;SDS011;7044;53.286;8.534;2023-02-05T01:06:47;5.83;;;3.40;;
13943;SDS011;7044;53.286;8.534;2023-02-05T01:09:14;4.13;;;3.20;;
13943;SDS011;7044;53.286;8.534;2023-02-05T01:11:41;4.43;;;3.33;;
13943;SDS011;7044;53.286;8.534;2023-02-05T01:14:09;6.63;;;3.50;;
13943;SDS011;7044;53.286;8.534;2023-02-05T01:16:36;4.57;;;3.10;;
13943;SDS011;7044;53.286;8.534;2023-02-05T01:19:03;4.50;;;3.17;;
13943;SDS011;7044;53.286;8.534;2023-02-05T01:21:29;8.50;;;3.47;;
13943;SDS011;7044;53.286;8.534;2023-02-05T01:23:56;6.67;;;3.50;;
13943;SDS011;7044;53.286;8.534;2023-02-05T01:26:25;4.60;;;3.37;;
13943;SDS011;7044;53.286;8.534;2023-02-05T01:28:52;3.87;;;2.70;;
13943;SDS011;7044;53.286;8.534;2023-02-05T01:31:20;4.77;;;3.43;;
13943;SDS011;7044;53.286;8.534;2023-02-05T01:33:49;6.07;;;3.27;;
13943;SDS011;7044;53.286;8.534;2023-02-05T01:36:16;6.37;;;3.30;;
13943;SDS011;7044;53.286;8.534;2023-02-05T01:38:42;3.50;;;2.73;;
13943;SDS011;7044;53.286;8.534;2023-02-05T01:41:10;5.27;;;3.10;;
13943;SDS011;7044;53.286;8.534;2023-02-05T01:43:37;5.00;;;3.13;;
13943;SDS011;7044;53.286;8.534;2023-02-05T01:46:06;5.67;;;3.43;;
13943;SDS011;7044;53.286;8.534;2023-02-05T01:48:44;5.60;;;3.13;;
13943;SDS011;7044;53.286;8.534;2023-02-05T01:51:13;5.67;;;2.87;;
13943;SDS011;7044;53.286;8.534;2023-02-05T01:53:41;5.23;;;3.27;;
13943;SDS011;7044;53.286;8.534;2023-02-05T01:56:11;4.43;;;3.30;;
13943;SDS011;7044;53.286;8.534;2023-02-05T01:58:42;4.83;;;2.97;;
13943;SDS011;7044;53.286;8.534;2023-02-05T02:01:13;6.00;;;3.17;;
13943;SDS011;7044;53.286;8.534;2023-02-05T02:03:40;4.47;;;2.93;;
13943;SDS011;7044;53.286;8.534;2023-02-05T02:06:08;4.33;;;2.90;;
13943;SDS011;7044;53.286;8.534;2023-02-05T02:08:35;5.17;;;3.20;;
13943;SDS011;7044;53.286;8.534;2023-02-05T02:11:02;4.93;;;3.20;;
13943;SDS011;7044;53.286;8.534;2023-02-05T02:13:32;8.47;;;2.93;;
13943;SDS011;7044;53.286;8.534;2023-02-05T02:16:00;4.73;;;2.87;;
13943;SDS011;7044;53.286;8.534;2023-02-05T02:18:28;7.33;;;3.13;;
13943;SDS011;7044;53.286;8.534;2023-02-05T02:24:11;4.43;;;2.97;;
13943;SDS011;7044;53.286;8.534;2023-02-05T02:26:52;3.77;;;2.97;;
13943;SDS011;7044;53.286;8.534;2023-02-05T02:29:35;3.27;;;2.80;;
13943;SDS011;7044;53.286;8.534;2023-02-05T02:32:07;8.13;;;3.07;;
13943;SDS011;7044;53.286;8.534;2023-02-05T02:34:40;6.07;;;2.97;;
13943;SDS011;7044;53.286;8.534;2023-02-05T02:37:11;5.67;;;3.50;;
13943;SDS011;7044;53.286;8.534;2023-02-05T02:39:44;4.40;;;3.17;;
13943;SDS011;7044;53.286;8.534;2023-02-05T02:42:20;5.03;;;3.17;;
13943;SDS011;7044;53.286;8.534;2023-02-05T02:44:52;4.20;;;3.00;;
13943;SDS011;7044;53.286;8.534;2023-02-05T02:47:24;5.07;;;3.27;;
13943;SDS011;7044;53.286;8.534;2023-02-05T02:49:55;5.43;;;3.20;;
13943;SDS011;7044;53.286;8.534;2023-02-05T02:52:25;5.50;;;3.00;;
13943;SDS011;7044;53.286;8.534;2023-02-05T02:54:55;3.23;;;2.60;;
13943;SDS011;7044;53.286;8.534;2023-02-05T02:57:26;4.90;;;3.17;;
13943;SDS011;7044;53.286;8.534;2023-02-05T02:59:56;4.23;;;2.80;;
13943;SDS011;7044;53.286;8.534;2023-02-05T03:02:25;7.00;;;3.30;;
13943;SDS011;7044;53.286;8.534;2023-02-05T03:04:56;4.20;;;3.20;;
13943;SDS011;7044;53.286;8.534;2023-02-05T03:07:28;7.77;;;3.43;;
13943;SDS011;7044;53.286;8.534;2023-02-05T03:09:59;4.63;;;3.30;;
13943;SDS011;7044;53.286;8.534;2023-02-05T03:12:29;5.43;;;3.30;;
13943;SDS011;7044;53.286;8.534;2023-02-05T03:14:57;8.20;;;3.67;;
13943;SDS011;7044;53.286;8.534;2023-02-05T03:17:25;4.23;;;3.00;;
13943;SDS011;7044;53.286;8.534;2023-02-05T03:19:55;6.20;;;2.87;;
13943;SDS011;7044;53.286;8.534;2023-02-05T03:22:26;3.63;;;2.67;;
13943;SDS011;7044;53.286;8.534;2023-02-05T03:24:53;5.03;;;2.77;;
13943;SDS011;7044;53.286;8.534;2023-02-05T03:27:20;6.53;;;3.27;;
13943;SDS011;7044;53.286;8.534;2023-02-05T03:29:48;5.10;;;2.73;;
13943;SDS011;7044;53.286;8.534;2023-02-05T03:32:20;4.60;;;3.03;;
13943;SDS011;7044;53.286;8.534;2023-02-05T03:34:59;4.83;;;2.60;;
13943;SDS011;7044;53.286;8.534;2023-02-05T03:37:39;4.07;;;3.17;;
13943;SDS011;7044;53.286;8.534;2023-02-05T03:40:17;6.23;;;3.00;;
13943;SDS011;7044;53.286;8.534;2023-02-05T03:42:50;9.47;;;3.23;;
13943;SDS011;7044;53.286;8.534;2023-02-05T03:45:32;4.83;;;3.50;;
13943;SDS011;7044;53.286;8.534;2023-02-05T03:48:14;5.43;;;3.30;;
13943;SDS011;7044;53.286;8.534;2023-02-05T03:50:54;5.90;;;3.40;;
13943;SDS011;7044;53.286;8.534;2023-02-05T03:53:28;4.43;;;3.03;;
13943;SDS011;7044;53.286;8.534;2023-02-05T03:56:03;12.33;;;3.73;;
13943;SDS011;7044;53.286;8.534;2023-02-05T03:58:33;4.80;;;3.20;;
13943;SDS011;7044;53.286;8.534;2023-02-05T04:01:03;3.47;;;2.83;;
13943;SDS011;7044;53.286;8.534;2023-02-05T04:03:32;6.47;;;3.07;;
13943;SDS011;7044;53.286;8.534;2023-02-05T04:05:59;3.93;;;2.83;;
13943;SDS011;7044;53.286;8.534;2023-02-05T04:08:25;4.10;;;2.67;;
13943;SDS011;7044;53.286;8.534;2023-02-05T04:10:52;3.50;;;2.73;;
13943;SDS011;7044;53.286;8.534;2023-02-05T04:13:19;5.37;;;3.27;;
13943;SDS011;7044;53.286;8.534;2023-02-05T04:15:46;7.60;;;2.97;;
13943;SDS011;7044;53.286;8.534;2023-02-05T04:18:13;5.33;;;2.97;;
13943;SDS011;7044;53.286;8.534;2023-02-05T04:20:42;3.87;;;3.07;;
13943;SDS011;7044;53.286;8.534;2023-02-05T04:23:09;3.83;;;2.90;;
13943;SDS011;7044;53.286;8.534;2023-02-05T04:25:36;6.57;;;3.37;;
13943;SDS011;7044;53.286;8.534;2023-02-05T04:28:04;5.03;;;3.43;;
13943;SDS011;7044;53.286;8.534;2023-02-05T04:30:31;7.63;;;3.30;;
13943;SDS011;7044;53.286;8.534;2023-02-05T04:32:58;4.70;;;2.93;;
13943;SDS011;7044;53.286;8.534;2023-02-05T04:35:25;6.63;;;3.00;;
13943;SDS011;7044;53.286;8.534;2023-02-05T04:37:53;4.43;;;2.90;;
13943;SDS011;7044;53.286;8.534;2023-02-05T04:40:20;4.77;;;2.83;;
13943;SDS011;7044;53.286;8.534;2023-02-05T04:42:47;7.17;;;4.00;;
13943;SDS011;7044;53.286;8.534;2023-02-05T04:45:13;3.50;;;2.90;;
13943;SDS011;7044;53.286;8.534;2023-02-05T04:47:40;5.30;;;2.90;;
13943;SDS011;7044;53.286;8.534;2023-02-05T04:50:07;7.30;;;3.20;;
13943;SDS011;7044;53.286;8.534;2023-02-05T04:52:34;4.77;;;3.17;;
13943;SDS011;7044;53.286;8.534;2023-02-05T04:55:03;5.80;;;3.30;;
13943;SDS011;7044;53.286;8.534;2023-02-05T04:57:30;10.00;;;3.30;;
13943;SDS011;7044;53.286;8.534;2023-02-05T04:59:57;5.20;;;3.50;;
13943;SDS011;7044;53.286;8.534;2023-02-05T05:02:24;5.30;;;3.17;;
13943;SDS011;7044;53.286;8.534;2023-02-05T05:04:51;9.30;;;3.70;;
13943;SDS011;7044;53.286;8.534;2023-02-05T05:07:18;7.80;;;3.77;;
13943;SDS011;7044;53.286;8.534;2023-02-05T05:09:44;6.10;;;3.47;;
13943;SDS011;7044;53.286;8.534;2023-02-05T05:12:13;8.07;;;3.67;;
13943;SDS011;7044;53.286;8.534;2023-02-05T05:14:40;8.27;;;4.10;;
13943;SDS011;7044;53.286;8.534;2023-02-05T05:17:06;5.70;;;3.70;;
13943;SDS011;7044;53.286;8.534;2023-02-05T05:19:34;6.60;;;3.37;;
13943;SDS011;7044;53.286;8.534;2023-02-05T05:22:01;5.40;;;3.67;;
13943;SDS011;7044;53.286;8.534;2023-02-05T05:24:28;5.20;;;3.77;;
13943;SDS011;7044;53.286;8.534;2023-02-05T05:26:54;7.80;;;3.57;;
13943;SDS011;7044;53.286;8.534;2023-02-05T05:29:23;6.47;;;3.60;;
13943;SDS011;7044;53.286;8.534;2023-02-05T05:31:50;6.07;;;3.30;;
13943;SDS011;7044;53.286;8.534;2023-02-05T05:34:17;5.87;;;3.60;;
13943;SDS011;7044;53.286;8.534;2023-02-05T05:36:44;5.83;;;3.53;;
13943;SDS011;7044;53.286;8.534;2023-02-05T05:39:11;9.23;;;3.33;;
13943;SDS011;7044;53.286;8.534;2023-02-05T05:41:56;5.47;;;3.27;;
13943;SDS011;7044;53.286;8.534;2023-02-05T05:44:43;4.70;;;3.10;;
13943;SDS011;7044;53.286;8.534;2023-02-05T05:47:14;4.83;;;3.40;;
13943;SDS011;7044;53.286;8.534;2023-02-05T05:49:41;4.47;;;3.27;;
13943;SDS011;7044;53.286;8.534;2023-02-05T05:52:08;4.00;;;2.93;;
13943;SDS011;7044;53.286;8.534;2023-02-05T05:54:35;5.80;;;3.43;;
13943;SDS011;7044;53.286;8.534;2023-02-05T05:57:02;9.30;;;3.43;;
13943;SDS011;7044;53.286;8.534;2023-02-05T05:59:29;5.13;;;3.67;;
13943;SDS011;7044;53.286;8.534;2023-02-05T06:01:58;6.33;;;3.67;;
13943;SDS011;7044;53.286;8.534;2023-02-05T06:04:26;4.47;;;3.17;;
13943;SDS011;7044;53.286;8.534;2023-02-05T06:06:54;5.07;;;3.20;;
13943;SDS011;7044;53.286;8.534;2023-02-05T06:09:21;4.80;;;3.57;;
13943;SDS011;7044;53.286;8.534;2023-02-05T06:11:48;6.63;;;3.50;;
13943;SDS011;7044;53.286;8.534;2023-02-05T06:14:15;6.57;;;3.30;;
13943;SDS011;7044;53.286;8.534;2023-02-05T06:16:42;4.37;;;3.70;;
13943;SDS011;7044;53.286;8.534;2023-02-05T06:19:10;6.50;;;3.93;;
13943;SDS011;7044;53.286;8.534;2023-02-05T06:21:37;5.37;;;4.03;;
13943;SDS011;7044;53.286;8.534;2023-02-05T06:24:04;4.53;;;3.70;;
13943;SDS011;7044;53.286;8.534;2023-02-05T06:26:31;5.33;;;3.87;;
13943;SDS011;7044;53.286;8.534;2023-02-05T06:28:58;4.57;;;3.80;;
13943;SDS011;7044;53.286;8.534;2023-02-05T06:31:27;5.67;;;3.63;;
13943;SDS011;7044;53.286;8.534;2023-02-05T06:33:54;4.97;;;3.60;;
13943;SDS011;7044;53.286;8.534;2023-02-05T06:36:22;7.43;;;4.10;;
13943;SDS011;7044;53.286;8.534;2023-02-05T06:38:49;6.97;;;4.17;;
13943;SDS011;7044;53.286;8.534;2023-02-05T06:41:16;5.90;;;4.20;;
13943;SDS011;7044;53.286;8.534;2023-02-05T06:43:43;5.60;;;4.27;;
13943;SDS011;7044;53.286;8.534;2023-02-05T06:46:10;7.10;;;4.23;;
13943;SDS011;7044;53.286;8.534;2023-02-05T06:48:37;9.20;;;4.40;;
13943;SDS011;7044;53.286;8.534;2023-02-05T06:51:04;7.13;;;4.00;;
13943;SDS011;7044;53.286;8.534;2023-02-05T06:53:32;7.17;;;4.40;;
13943;SDS011;7044;53.286;8.534;2023-02-05T06:55:59;7.13;;;4.67;;
13943;SDS011;7044;53.286;8.534;2023-02-05T06:58:26;5.33;;;3.87;;
13943;SDS011;7044;53.286;8.534;2023-02-05T07:00:53;4.87;;;4.07;;
13943;SDS011;7044;53.286;8.534;2023-02-05T07:03:20;5.47;;;4.30;;
13943;SDS011;7044;53.286;8.534;2023-02-05T07:05:47;6.73;;;4.47;;
13943;SDS011;7044;53.286;8.534;2023-02-05T07:08:14;6.97;;;4.23;;
13943;SDS011;7044;53.286;8.534;2023-02-05T07:10:42;5.70;;;4.17;;
13943;SDS011;7044;53.286;8.534;2023-02-05T07:13:09;7.40;;;3.80;;
13943;SDS011;7044;53.286;8.534;2023-02-05T07:15:36;5.33;;;4.23;;
13943;SDS011;7044;53.286;8.534;2023-02-05T07:18:03;4.67;;;4.10;;
13943;SDS011;7044;53.286;8.534;2023-02-05T07:20:30;6.70;;;4.33;;
13943;SDS011;7044;53.286;8.534;2023-02-05T07:22:59;5.67;;;4.03;;
13943;SDS011;7044;53.286;8.534;2023-02-05T07:25:26;5.80;;;4.13;;
13943;SDS011;7044;53.286;8.534;2023-02-05T07:27:54;5.53;;;4.40;;
13943;SDS011;7044;53.286;8.534;2023-02-05T07:30:21;5.90;;;4.57;;
13943;SDS011;7044;53.286;8.534;2023-02-05T07:32:48;6.53;;;4.73;;
13943;SDS011;7044;53.286;8.534;2023-02-05T07:35:14;4.73;;;3.77;;
13943;SDS011;7044;53.286;8.534;2023-02-05T07:37:41;5.40;;;4.87;;
13943;SDS011;7044;53.286;8.534;2023-02-05T07:40:08;8.17;;;5.33;;
13943;SDS011;7044;53.286;8.534;2023-02-05T07:42:36;25.43;;;13.37;;
13943;SDS011;7044;53.286;8.534;2023-02-05T07:45:04;75.70;;;30.37;;
13943;SDS011;7044;53.286;8.534;2023-02-05T07:47:32;58.00;;;23.27;;
13943;SDS011;7044;53.286;8.534;2023-02-05T07:49:59;28.03;;;12.90;;
13943;SDS011;7044;53.286;8.534;2023-02-05T07:52:25;19.63;;;11.03;;
13943;SDS011;7044;53.286;8.534;2023-02-05T07:54:52;14.07;;;6.87;;
13943;SDS011;7044;53.286;8.534;2023-02-05T07:57:19;12.27;;;5.33;;
13943;SDS011;7044;53.286;8.534;2023-02-05T07:59:46;10.03;;;6.30;;
13943;SDS011;7044;53.286;8.534;2023-02-05T08:02:14;10.40;;;6.60;;
13943;SDS011;7044;53.286;8.534;2023-02-05T08:04:41;12.00;;;7.10;;
13943;SDS011;7044;53.286;8.534;2023-02-05T08:07:08;9.17;;;6.53;;
13943;SDS011;7044;53.286;8.534;2023-02-05T08:09:37;13.87;;;7.90;;
13943;SDS011;7044;53.286;8.534;2023-02-05T08:12:04;9.30;;;6.03;;
13943;SDS011;7044;53.286;8.534;2023-02-05T08:14:31;8.40;;;5.40;;
13943;SDS011;7044;53.286;8.534;2023-02-05T08:16:58;8.60;;;5.90;;
13943;SDS011;7044;53.286;8.534;2023-02-05T08:19:27;9.20;;;6.57;;
13943;SDS011;7044;53.286;8.534;2023-02-05T08:21:54;13.83;;;8.00;;
13943;SDS011;7044;53.286;8.534;2023-02-05T08:24:20;11.43;;;7.53;;
13943;SDS011;7044;53.286;8.534;2023-02-05T08:26:47;9.10;;;7.03;;
13943;SDS011;7044;53.286;8.534;2023-02-05T08:29:14;7.77;;;6.40;;
13943;SDS011;7044;53.286;8.534;2023-02-05T08:31:41;7.97;;;5.50;;
13943;SDS011;7044;53.286;8.534;2023-02-05T08:34:08;6.97;;;4.90;;
13943;SDS011;7044;53.286;8.534;2023-02-05T08:36:36;6.63;;;4.47;;
13943;SDS011;7044;53.286;8.534;2023-02-05T08:39:03;6.53;;;4.83;;
13943;SDS011;7044;53.286;8.534;2023-02-05T08:41:30;6.43;;;4.77;;
13943;SDS011;7044;53.286;8.534;2023-02-05T08:43:57;5.87;;;4.60;;
13943;SDS011;7044;53.286;8.534;2023-02-05T08:46:24;9.33;;;4.83;;
13943;SDS011;7044;53.286;8.534;2023-02-05T08:48:51;5.37;;;4.43;;
13943;SDS011;7044;53.286;8.534;2023-02-05T08:51:18;7.13;;;4.80;;
13943;SDS011;7044;53.286;8.534;2023-02-05T08:53:48;8.33;;;4.40;;
13943;SDS011;7044;53.286;8.534;2023-02-05T08:56:15;5.30;;;4.80;;
13943;SDS011;7044;53.286;8.534;2023-02-05T08:58:42;8.53;;;5.90;;
13943;SDS011;7044;53.286;8.534;2023-02-05T09:01:10;6.60;;;5.43;;
13943;SDS011;7044;53.286;8.534;2023-02-05T09:03:38;7.37;;;4.97;;
13943;SDS011;7044;53.286;8.534;2023-02-05T09:06:06;8.40;;;5.47;;
13943;SDS011;7044;53.286;8.534;2023-02-05T09:08:34;7.63;;;4.70;;
13943;SDS011;7044;53.286;8.534;2023-02-05T09:11:03;7.37;;;4.97;;
13943;SDS011;7044;53.286;8.534;2023-02-05T09:13:31;8.73;;;5.10;;
13943;SDS011;7044;53.286;8.534;2023-02-05T09:15:59;6.53;;;5.27;;
13943;SDS011;7044;53.286;8.534;2023-02-05T09:18:26;8.50;;;5.00;;
13943;SDS011;7044;53.286;8.534;2023-02-05T09:20:53;5.97;;;4.83;;
13943;SDS011;7044;53.286;8.534;2023-02-05T09:23:20;6.60;;;5.13;;
13943;SDS011;7044;53.286;8.534;2023-02-05T09:25:47;8.13;;;5.83;;
13943;SDS011;7044;53.286;8.534;2023-02-05T09:28:15;9.93;;;5.40;;
13943;SDS011;7044;53.286;8.534;2023-02-05T09:30:43;7.40;;;5.67;;
13943;SDS011;7044;53.286;8.534;2023-02-05T09:33:11;9.93;;;6.30;;
13943;SDS011;7044;53.286;8.534;2023-02-05T09:35:38;11.00;;;5.90;;
13943;SDS011;7044;53.286;8.534;2023-02-05T09:38:06;8.60;;;5.93;;
13943;SDS011;7044;53.286;8.534;2023-02-05T09:40:35;7.23;;;5.30;;
13943;SDS011;7044;53.286;8.534;2023-02-05T09:43:11;8.47;;;5.63;;
13943;SDS011;7044;53.286;8.534;2023-02-05T09:45:53;8.57;;;5.93;;
13943;SDS011;7044;53.286;8.534;2023-02-05T09:48:34;11.83;;;6.07;;
13943;SDS011;7044;53.286;8.534;2023-02-05T09:51:13;11.30;;;6.17;;
13943;SDS011;7044;53.286;8.534;2023-02-05T09:53:43;10.70;;;6.30;;
13943;SDS011;7044;53.286;8.534;2023-02-05T09:56:14;7.20;;;5.37;;
13943;SDS011;7044;53.286;8.534;2023-02-05T09:58:45;8.17;;;5.33;;
13943;SDS011;7044;53.286;8.534;2023-02-05T10:01:16;9.27;;;6.90;;
13943;SDS011;7044;53.286;8.534;2023-02-05T10:03:47;9.77;;;6.53;;
13943;SDS011;7044;53.286;8.534;2023-02-05T10:06:30;8.53;;;6.60;;
13943;SDS011;7044;53.286;8.534;2023-02-05T10:09:22;8.67;;;6.30;;
13943;SDS011;7044;53.286;8.534;2023-02-05T10:11:57;10.07;;;6.23;;
13943;SDS011;7044;53.286;8.534;2023-02-05T10:14:34;8.30;;;6.17;;
13943;SDS011;7044;53.286;8.534;2023-02-05T10:17:15;10.73;;;7.33;;
13943;SDS011;7044;53.286;8.534;2023-02-05T10:22:53;10.87;;;7.80;;
13943;SDS011;7044;53.286;8.534;2023-02-05T10:25:36;13.83;;;9.70;;
13943;SDS011;7044;53.286;8.534;2023-02-05T10:28:11;12.33;;;8.03;;
13943;SDS011;7044;53.286;8.534;2023-02-05T10:30:48;10.27;;;7.00;;
13943;SDS011;7044;53.286;8.534;2023-02-05T10:33:23;9.83;;;7.07;;
13943;SDS011;7044;53.286;8.534;2023-02-05T10:36:01;11.17;;;7.17;;
13943;SDS011;7044;53.286;8.534;2023-02-05T10:38:31;8.43;;;6.70;;
13943;SDS011;7044;53.286;8.534;2023-02-05T10:41:04;13.20;;;7.77;;
13943;SDS011;7044;53.286;8.534;2023-02-05T10:43:38;10.50;;;7.63;;
13943;SDS011;7044;53.286;8.534;2023-02-05T10:46:20;12.80;;;9.10;;
13943;SDS011;7044;53.286;8.534;2023-02-05T10:48:55;13.00;;;8.23;;
13943;SDS011;7044;53.286;8.534;2023-02-05T10:51:27;7.47;;;6.07;;
13943;SDS011;7044;53.286;8.534;2023-02-05T10:53:57;8.50;;;5.47;;
13943;SDS011;7044;53.286;8.534;2023-02-05T10:56:26;19.50;;;6.80;;
13943;SDS011;7044;53.286;8.534;2023-02-05T10:58:54;42.47;;;9.03;;
13943;SDS011;7044;53.286;8.534;2023-02-05T11:01:25;14.33;;;8.00;;
13943;SDS011;7044;53.286;8.534;2023-02-05T11:03:58;10.10;;;8.10;;
13943;SDS011;7044;53.286;8.534;2023-02-05T11:06:27;11.90;;;7.37;;
13943;SDS011;7044;53.286;8.534;2023-02-05T11:08:58;11.17;;;8.00;;
13943;SDS011;7044;53.286;8.534;2023-02-05T11:11:29;10.13;;;7.13;;
13943;SDS011;7044;53.286;8.534;2023-02-05T11:13:57;10.33;;;7.97;;
13943;SDS011;7044;53.286;8.534;2023-02-05T11:16:35;15.47;;;7.87;;
13943;SDS011;7044;53.286;8.534;2023-02-05T11:19:04;10.47;;;7.60;;
13943;SDS011;7044;53.286;8.534;2023-02-05T11:21:48;13.33;;;7.90;;
13943;SDS011;7044;53.286;8.534;2023-02-05T11:24:21;10.13;;;7.67;;
13943;SDS011;7044;53.286;8.534;2023-02-05T11:26:55;12.73;;;7.77;;
13943;SDS011;7044;53.286;8.534;2023-02-05T11:29:57;16.07;;;7.20;;
13943;SDS011;7044;53.286;8.534;2023-02-05T11:32:43;19.20;;;7.33;;
13943;SDS011;7044;53.286;8.534;2023-02-05T11:35:18;8.80;;;7.00;;
13943;SDS011;7044;53.286;8.534;2023-02-05T11:37:47;11.77;;;8.37;;
13943;SDS011;7044;53.286;8.534;2023-02-05T11:40:21;12.10;;;8.17;;
13943;SDS011;7044;53.286;8.534;2023-02-05T11:42:56;8.40;;;6.93;;
13943;SDS011;7044;53.286;8.534;2023-02-05T11:45:29;11.63;;;7.83;;
13943;SDS011;7044;53.286;8.534;2023-02-05T11:48:00;12.57;;;7.60;;
13943;SDS011;7044;53.286;8.534;2023-02-05T11:50:30;11.60;;;7.63;;
13943;SDS011;7044;53.286;8.534;2023-02-05T11:53:06;11.23;;;7.73;;
13943;SDS011;7044;53.286;8.534;2023-02-05T11:55:40;12.07;;;8.63;;
13943;SDS011;7044;53.286;8.534;2023-02-05T11:58:17;10.90;;;7.77;;
13943;SDS011;7044;53.286;8.534;2023-02-05T12:00:50;12.47;;;8.57;;
13943;SDS011;7044;53.286;8.534;2023-02-05T12:03:19;20.80;;;11.87;;
13943;SDS011;7044;53.286;8.534;2023-02-05T12:05:49;13.47;;;8.93;;
13943;SDS011;7044;53.286;8.534;2023-02-05T12:08:31;10.37;;;7.93;;
13943;SDS011;7044;53.286;8.534;2023-02-05T12:11:18;11.40;;;8.33;;
13943;SDS011;7044;53.286;8.534;2023-02-05T12:14:24;12.50;;;8.90;;
13943;SDS011;7044;53.286;8.534;2023-02-05T12:16:59;12.70;;;7.97;;
13943;SDS011;7044;53.286;8.534;2023-02-05T12:19:41;11.30;;;7.97;;
13943;SDS011;7044;53.286;8.534;2023-02-05T12:22:23;13.87;;;8.53;;
13943;SDS011;7044;53.286;8.534;2023-02-05T12:25:07;11.60;;;8.63;;
13943;SDS011;7044;53.286;8.534;2023-02-05T12:27:45;12.27;;;8.23;;
13943;SDS011;7044;53.286;8.534;2023-02-05T12:30:31;10.70;;;8.33;;
13943;SDS011;7044;53.286;8.534;2023-02-05T12:33:17;12.00;;;8.53;;
13943;SDS011;7044;53.286;8.534;2023-02-05T12:35:58;14.10;;;8.43;;
13943;SDS011;7044;53.286;8.534;2023-02-05T12:38:36;11.87;;;8.43;;
13943;SDS011;7044;53.286;8.534;2023-02-05T12:41:18;11.77;;;8.73;;
13943;SDS011;7044;53.286;8.534;2023-02-05T12:43:56;17.13;;;8.57;;
13943;SDS011;7044;53.286;8.534;2023-02-05T12:46:35;13.57;;;9.10;;
13943;SDS011;7044;53.286;8.534;2023-02-05T12:49:17;16.50;;;11.63;;
13943;SDS011;7044;53.286;8.534;2023-02-05T12:54:54;20.13;;;15.63;;
13943;SDS011;7044;53.286;8.534;2023-02-05T12:57:31;17.70;;;11.10;;
13943;SDS011;7044;53.286;8.534;2023-02-05T13:00:03;22.47;;;12.20;;
13943;SDS011;7044;53.286;8.534;2023-02-05T13:02:37;30.73;;;19.37;;
13943;SDS011;7044;53.286;8.534;2023-02-05T13:05:15;29.37;;;18.00;;
13943;SDS011;7044;53.286;8.534;2023-02-05T13:07:50;25.77;;;17.17;;
13943;SDS011;7044;53.286;8.534;2023-02-05T13:10:21;14.63;;;10.00;;
13943;SDS011;7044;53.286;8.534;2023-02-05T13:12:52;13.70;;;9.80;;
13943;SDS011;7044;53.286;8.534;2023-02-05T13:15:26;12.93;;;9.10;;
13943;SDS011;7044;53.286;8.534;2023-02-05T13:17:58;16.77;;;10.77;;
13943;SDS011;7044;53.286;8.534;2023-02-05T13:20:30;15.57;;;10.03;;
13943;SDS011;7044;53.286;8.534;2023-02-05T13:23:20;13.90;;;8.80;;
13943;SDS011;7044;53.286;8.534;2023-02-05T13:26:06;12.93;;;9.07;;
13943;SDS011;7044;53.286;8.534;2023-02-05T13:29:06;11.23;;;8.20;;
13943;SDS011;7044;53.286;8.534;2023-02-05T13:31:36;12.00;;;7.93;;
13943;SDS011;7044;53.286;8.534;2023-02-05T13:34:08;14.67;;;8.53;;
13943;SDS011;7044;53.286;8.534;2023-02-05T13:36:46;16.67;;;9.47;;
13943;SDS011;7044;53.286;8.534;2023-02-05T13:45:35;19.60;;;9.63;;
13943;SDS011;7044;53.286;8.534;2023-02-05T13:51:38;16.80;;;10.07;;
13943;SDS011;7044;53.286;8.534;2023-02-05T13:54:17;16.00;;;10.30;;
13943;SDS011;7044;53.286;8.534;2023-02-05T13:56:56;16.53;;;9.97;;
13943;SDS011;7044;53.286;8.534;2023-02-05T13:59:36;20.20;;;10.40;;
13943;SDS011;7044;53.286;8.534;2023-02-05T14:02:18;17.77;;;10.37;;
13943;SDS011;7044;53.286;8.534;2023-02-05T14:04:54;17.17;;;9.97;;
13943;SDS011;7044;53.286;8.534;2023-02-05T14:07:23;20.70;;;9.57;;
13943;SDS011;7044;53.286;8.534;2023-02-05T14:09:54;17.83;;;10.63;;
13943;SDS011;7044;53.286;8.534;2023-02-05T14:12:25;18.57;;;11.17;;
13943;SDS011;7044;53.286;8.534;2023-02-05T14:18:01;15.53;;;9.67;;
13943;SDS011;7044;53.286;8.534;2023-02-05T14:20:29;16.80;;;10.23;;
13943;SDS011;7044;53.286;8.534;2023-02-05T14:22:58;12.77;;;10.07;;
13943;SDS011;7044;53.286;8.534;2023-02-05T14:28:33;13.83;;;9.17;;
13943;SDS011;7044;53.286;8.534;2023-02-05T14:34:26;22.37;;;11.13;;
13943;SDS011;7044;53.286;8.534;2023-02-05T14:37:33;15.23;;;9.53;;
13943;SDS011;7044;53.286;8.534;2023-02-05T14:40:13;16.07;;;9.50;;
13943;SDS011;7044;53.286;8.534;2023-02-05T14:42:49;15.97;;;10.13;;
13943;SDS011;7044;53.286;8.534;2023-02-05T14:45:20;14.93;;;9.90;;
13943;SDS011;7044;53.286;8.534;2023-02-05T14:47:49;16.03;;;9.83;;
13943;SDS011;7044;53.286;8.534;2023-02-05T14:50:18;16.53;;;9.33;;
13943;SDS011;7044;53.286;8.534;2023-02-05T14:52:48;13.87;;;10.03;;
13943;SDS011;7044;53.286;8.534;2023-02-05T14:55:18;13.73;;;9.10;;
13943;SDS011;7044;53.286;8.534;2023-02-05T14:57:48;16.37;;;9.40;;
13943;SDS011;7044;53.286;8.534;2023-02-05T15:00:22;17.50;;;8.63;;
13943;SDS011;7044;53.286;8.534;2023-02-05T15:03:11;23.87;;;10.20;;
13943;SDS011;7044;53.286;8.534;2023-02-05T15:05:49;18.50;;;10.30;;
13943;SDS011;7044;53.286;8.534;2023-02-05T15:08:22;16.63;;;9.57;;
13943;SDS011;7044;53.286;8.534;2023-02-05T15:10:55;16.33;;;9.50;;
13943;SDS011;7044;53.286;8.534;2023-02-05T15:13:29;16.53;;;9.70;;
13943;SDS011;7044;53.286;8.534;2023-02-05T15:16:06;13.40;;;9.10;;
13943;SDS011;7044;53.286;8.534;2023-02-05T15:18:42;13.43;;;9.43;;
13943;SDS011;7044;53.286;8.534;2023-02-05T15:21:12;12.83;;;8.47;;
13943;SDS011;7044;53.286;8.534;2023-02-05T15:23:43;19.20;;;8.93;;
13943;SDS011;7044;53.286;8.534;2023-02-05T15:26:18;15.73;;;8.37;;
13943;SDS011;7044;53.286;8.534;2023-02-05T15:28:53;16.13;;;8.73;;
13943;SDS011;7044;53.286;8.534;2023-02-05T15:31:29;17.03;;;8.13;;
13943;SDS011;7044;53.286;8.534;2023-02-05T15:34:04;12.20;;;7.03;;
13943;SDS011;7044;53.286;8.534;2023-02-05T15:36:48;10.50;;;6.50;;
13943;SDS011;7044;53.286;8.534;2023-02-05T15:39:22;12.63;;;5.90;;
13943;SDS011;7044;53.286;8.534;2023-02-05T15:41:55;14.37;;;6.67;;
13943;SDS011;7044;53.286;8.534;2023-02-05T15:44:25;13.77;;;7.23;;
13943;SDS011;7044;53.286;8.534;2023-02-05T15:46:55;17.80;;;6.03;;